Flight Track Log - Related Links

Times and Time Zones

All times are in EDT time to prevent confusion due to time zone crossing. See the ACA1114 flight status page for this flight to view local times or setup timezone preferences in your user account.

Time Position Orientation Groundspeed Altitude Reporting Facility
EDT Latitude Longitude Course Direction KTS MPH feet Rate Location/Type
Tue 12:50:47 PM 50.4000 -104.6333 95° East 170 196 3,500  Level Winnipeg Center
Tue 12:51:47 PM 50.3500 -104.5833 147° Southeast 210 242 5,100 1,700 Climbing Winnipeg Center
Tue 12:52:47 PM 50.3500 -104.4500 90° East 290 334 6,900 2,350 Climbing Winnipeg Center
Tue 12:53:00 PM 50.3235 -103.8878 95° East  Level Estimated
Tue 12:53:47 PM 50.3500 -104.3167 90° East 300 345 9,800  Level Winnipeg Center
Tue 12:54:00 PM 50.2955 -103.6938 93° East  Level Estimated
Tue 12:54:47 PM 50.3500 -104.1833 90° East 310 357 12,300  Level Winnipeg Center
Tue 12:55:00 PM 50.3392 -103.5071 70° East  Level FlightAware Approximate
Tue 12:55:47 PM 50.3500 -104.0333 90° East 330 380 14,300  Level Winnipeg Center
Tue 12:56:00 PM 50.3102 -103.3135 95° East  Level Estimated
Tue 12:56:47 PM 50.3667 -103.8667 81° East 340 391 16,500  Level Winnipeg Center
Tue 12:57:47 PM 50.3500 -103.7333 101° East 360 414 18,800 1,850 Climbing Winnipeg Center
Tue 12:58:47 PM 50.3667 -103.5500 82° East 390 449 20,200 1,600 Climbing Winnipeg Center
Tue 12:59:47 PM 50.3500 -103.4000 100° East 400 460 22,000 2,000 Climbing Winnipeg Center
Tue 01:00:47 PM 50.3500 -103.1833 90° East 410 472 24,200 1,850 Climbing Winnipeg Center
Tue 01:01:47 PM 50.3500 -103.0333 90° East 410 472 25,700 1,400 Climbing Winnipeg Center
Tue 01:02:47 PM 50.3500 -102.8500 90° East 410 472 27,000 1,300 Climbing Winnipeg Center
Tue 01:03:47 PM 50.3333 -102.6667 98° East 420 483 28,300 1,200 Climbing Winnipeg Center
Tue 01:04:47 PM 50.3500 -102.4833 82° East 430 495 29,400 1,050 Climbing Winnipeg Center
Tue 01:05:47 PM 50.3667 -102.2667 83° East 440 506 30,400 900 Climbing Winnipeg Center
Tue 01:06:47 PM 50.3667 -102.0833 90° East 450 518 31,200 900 Climbing Winnipeg Center
Tue 01:07:47 PM 50.3667 -101.8667 90° East 450 518 32,200 1,000 Climbing Winnipeg Center
Tue 01:08:47 PM 50.3667 -101.6833 90° East 450 518 33,200 1,000 Climbing Winnipeg Center
Tue 01:09:47 PM 50.3833 -101.4833 82° East 450 518 34,200 800 Climbing Winnipeg Center
Tue 01:10:47 PM 50.3833 -101.3000 90° East 440 506 34,800 650 Climbing Winnipeg Center
Tue 01:11:47 PM 50.3667 -101.1167 98° East 440 506 35,500 550 Climbing Winnipeg Center
Tue 01:12:47 PM 50.3833 -100.9333 82° East 450 518 35,900 550 Climbing Winnipeg Center
Tue 01:13:47 PM 50.3833 -100.7167 90° East 450 518 36,600 500 Climbing Winnipeg Center
Tue 01:14:47 PM 50.4000 -100.5333 82° East 450 518 36,900 200 Climbing Winnipeg Center
Tue 01:15:47 PM 50.4000 -100.3333 90° East 450 518 37,000 50 Climbing Winnipeg Center
Tue 01:16:47 PM 50.3833 -100.1167 97° East 460 529 37,000  Level Winnipeg Center
Tue 01:17:47 PM 50.4000 -99.9000 83° East 460 529 37,000  Level Winnipeg Center
Tue 01:18:47 PM 50.4000 -99.7167 90° East 470 541 37,000  Level Winnipeg Center
Tue 01:19:47 PM 50.4000 -99.5167 90° East 470 541 37,000  Level Winnipeg Center
Tue 01:20:47 PM 50.4000 -99.3000 90° East 470 541 37,000  Level Winnipeg Center
Tue 01:21:47 PM 50.4167 -99.1000 82° East 470 541 37,000  Level Winnipeg Center
Tue 01:22:47 PM 50.4000 -98.8833 97° East 470 541 37,000  Level Winnipeg Center
Tue 01:23:47 PM 50.4000 -98.6667 90° East 480 552 37,000  Level Winnipeg Center
Tue 01:24:47 PM 50.3500 -98.4667 111° Southeast 480 552 37,000  Level Winnipeg Center
Tue 01:25:47 PM 50.3167 -98.2833 106° East 480 552 37,000  Level Winnipeg Center
Tue 01:26:47 PM 50.3000 -98.0667 97° East 480 552 37,000  Level Winnipeg Center
Tue 01:27:47 PM 50.2500 -97.8833 113° Southeast 480 552 37,000  Level Winnipeg Center
Tue 01:28:47 PM 50.2167 -97.6667 103° East 480 552 37,000  Level Winnipeg Center
Tue 01:29:47 PM 50.1833 -97.4667 105° East 480 552 37,000  Level Winnipeg Center
Tue 01:30:47 PM 50.1500 -97.2833 106° East 480 552 37,000  Level Winnipeg Center
Tue 01:31:47 PM 50.1000 -97.0667 110° East 480 552 37,000  Level Winnipeg Center
Tue 01:32:47 PM 50.0667 -96.8667 104° East 480 552 37,000  Level Winnipeg Center
Tue 01:33:47 PM 50.0333 -96.6833 106° East 470 541 37,000  Level Winnipeg Center
Tue 01:34:47 PM 49.9833 -96.4667 110° East 480 552 37,000  Level Winnipeg Center
Tue 01:35:47 PM 49.9500 -96.2833 106° East 480 552 37,000  Level Winnipeg Center
Tue 01:36:47 PM 49.9167 -96.0833 104° East 480 552 37,000  Level Winnipeg Center
Tue 01:37:47 PM 49.8500 -95.8833 117° Southeast 480 552 37,000  Level Winnipeg Center
Tue 01:38:47 PM 49.8167 -95.7000 106° East 480 552 37,000  Level Winnipeg Center
Tue 01:39:47 PM 49.7833 -95.4833 103° East 470 541 37,000  Level Winnipeg Center
Tue 01:40:47 PM 49.7333 -95.3167 115° Southeast 480 552 37,000  Level Winnipeg Center
Tue 01:41:47 PM 49.7000 -95.1000 103° East 480 552 37,000  Level Winnipeg Center
Tue 01:42:47 PM 49.6667 -94.9167 106° East 470 541 37,000  Level Winnipeg Center
Tue 01:43:47 PM 49.6167 -94.7167 111° Southeast 470 541 37,000  Level Winnipeg Center
Tue 01:44:47 PM 49.5667 -94.5167 111° Southeast 470 541 37,000  Level Winnipeg Center
Tue 01:45:47 PM 49.5333 -94.3333 106° East 470 541 37,000  Level Winnipeg Center
Tue 01:46:47 PM 49.5000 -94.1333 104° East 470 541 37,000  Level Winnipeg Center
Tue 01:47:47 PM 49.4500 -93.9500 113° Southeast 470 541 37,000  Level Winnipeg Center
Tue 01:48:47 PM 49.4167 -93.7500 104° East 460 529 37,000  Level Winnipeg Center
Tue 01:49:47 PM 49.4000 -93.5667 98° East 470 541 37,000  Level Winnipeg Center
Tue 01:50:47 PM 49.3667 -93.3667 104° East 470 541 37,000  Level Winnipeg Center
Tue 01:51:47 PM 49.3333 -93.2000 107° East 470 541 37,000  Level Winnipeg Center
Tue 01:52:47 PM 49.3000 -92.9833 103° East 470 541 37,000  Level Winnipeg Center
Tue 01:53:47 PM 49.2833 -92.7833 97° East 470 541 37,000  Level Winnipeg Center
Tue 01:54:47 PM 49.2333 -92.5833 111° Southeast 470 541 37,000  Level Winnipeg Center
Tue 01:55:47 PM 49.2167 -92.4000 98° East 470 541 37,000  Level Winnipeg Center
Tue 01:56:47 PM 49.2000 -92.2000 97° East 470 541 37,000  Level Winnipeg Center
Tue 01:57:47 PM 49.1500 -92.0333 115° Southeast 470 541 37,000  Level Winnipeg Center
Tue 01:58:47 PM 49.1167 -91.8000 102° East 470 541 37,000  Level Winnipeg Center
Tue 01:59:47 PM 49.1000 -91.6333 99° East 470 541 37,000  Level Winnipeg Center
Tue 02:00:47 PM 49.0667 -91.4500 105° East 470 541 37,000  Level Winnipeg Center
Tue 02:01:47 PM 49.0333 -91.2500 104° East 470 541 37,000  Level Winnipeg Center
Tue 02:02:47 PM 49.0000 -91.0500 104° East 470 541 37,000  Level Winnipeg Center
Tue 02:03:47 PM 48.9667 -90.8500 104° East 470 541 37,000  Level Winnipeg Center
Tue 02:04:47 PM 48.9333 -90.6500 104° East 470 541 37,000  Level Winnipeg Center
Tue 02:05:47 PM 48.9000 -90.4667 105° East 470 541 37,000  Level Winnipeg Center
Tue 02:06:47 PM 48.8667 -90.2833 105° East 480 552 37,000  Level Winnipeg Center
Tue 02:07:47 PM 48.8333 -90.0833 104° East 480 552 37,000  Level Winnipeg Center
Tue 02:08:47 PM 48.8000 -89.8833 104° East 480 552 37,000  Level Winnipeg Center
Tue 02:09:47 PM 48.7500 -89.6833 111° Southeast 480 552 37,000  Level Winnipeg Center
Tue 02:10:47 PM 48.7333 -89.5000 98° East 480 552 37,000  Level Winnipeg Center
Tue 02:11:47 PM 48.7000 -89.2833 103° East 480 552 37,000  Level Winnipeg Center
Tue 02:12:47 PM 48.6500 -89.1167 114° Southeast 480 552 37,000  Level Winnipeg Center
Tue 02:13:47 PM 48.6000 -88.9167 111° Southeast 480 552 37,000  Level Winnipeg Center
Tue 02:14:47 PM 48.5333 -88.7500 121° Southeast 470 541 37,000  Level Winnipeg Center
Tue 02:15:47 PM 48.4833 -88.5833 114° Southeast 470 541 37,000  Level Winnipeg Center
Tue 02:16:47 PM 48.4167 -88.4000 119° Southeast 480 552 37,000  Level Winnipeg Center
Tue 02:17:47 PM 48.3500 -88.2333 121° Southeast 480 552 37,000  Level Winnipeg Center
Tue 02:18:47 PM 48.2833 -88.0333 117° Southeast 480 552 37,000  Level Winnipeg Center
Tue 02:19:47 PM 48.2000 -87.8667 127° Southeast 480 552 37,000  Level Winnipeg Center
Tue 02:20:47 PM 48.1333 -87.7167 124° Southeast 480 552 37,000  Level Winnipeg Center
Tue 02:21:47 PM 48.0667 -87.5167 116° Southeast 480 552 37,000  Level Winnipeg Center
Tue 02:22:47 PM 48.0000 -87.3667 124° Southeast 480 552 37,000  Level Winnipeg Center
Tue 02:23:47 PM 47.9333 -87.1667 116° Southeast 480 552 37,000  Level Winnipeg Center
Tue 02:24:47 PM 47.8667 -87.0167 123° Southeast 480 552 37,000  Level Winnipeg Center
Tue 02:25:47 PM 47.8000 -86.8167 116° Southeast 480 552 37,000  Level Winnipeg Center
Tue 02:26:47 PM 47.7333 -86.6667 123° Southeast 480 552 37,000  Level Winnipeg Center
Tue 02:27:47 PM 47.6667 -86.4667 116° Southeast 480 552 37,000  Level Winnipeg Center
Tue 02:28:47 PM 47.6000 -86.3167 123° Southeast 480 552 37,000  Level Winnipeg Center
Tue 02:29:47 PM 47.5333 -86.1333 118° Southeast 490 564 37,000  Level Winnipeg Center
Tue 02:30:47 PM 47.4667 -85.9667 121° Southeast 490 564 37,000  Level Winnipeg Center
Tue 02:31:47 PM 47.4000 -85.7833 118° Southeast 490 564 37,000  Level Winnipeg Center
Tue 02:32:47 PM 47.3167 -85.6333 129° Southeast 480 552 37,000  Level Winnipeg Center
Tue 02:33:47 PM 47.2667 -85.4500 112° Southeast 480 552 37,000  Level Winnipeg Center
Tue 02:34:47 PM 47.1833 -85.2833 126° Southeast 480 552 37,000  Level Winnipeg Center
Tue 02:35:47 PM 47.1167 -85.1333 123° Southeast 480 552 37,000  Level Winnipeg Center
Tue 02:36:47 PM 47.0500 -84.9500 118° Southeast 480 552 37,000  Level Winnipeg Center
Tue 02:37:47 PM 46.9667 -84.7667 124° Southeast 490 564 37,000  Level Winnipeg Center
Tue 02:38:47 PM 46.9000 -84.6167 123° Southeast 490 564 37,000  Level Winnipeg Center
Tue 02:39:47 PM 46.8333 -84.4333 118° Southeast 490 564 37,000  Level Winnipeg Center
Tue 02:40:47 PM 46.7667 -84.2833 123° Southeast 490 564 37,000  Level Winnipeg Center
Tue 02:41:47 PM 46.7000 -84.1333 123° Southeast 490 564 37,000  Level Winnipeg Center
Tue 02:43:01 PM 46.6167 -83.9500 123° Southeast 490 564 37,000  Level Toronto Center
Tue 02:44:01 PM 46.5500 -83.7833 120° Southeast 500 575 37,000  Level Toronto Center
Tue 02:45:01 PM 46.4500 -83.6000 128° Southeast 510 587 37,000  Level Toronto Center
Tue 02:46:01 PM 46.3833 -83.4500 123° Southeast 510 587 37,000  Level Toronto Center
Tue 02:47:01 PM 46.3167 -83.2833 120° Southeast 510 587 37,000  Level Toronto Center
Tue 02:48:01 PM 46.2167 -83.1000 128° Southeast 510 587 37,000  Level Toronto Center
Tue 02:49:01 PM 46.1333 -82.9500 129° Southeast 510 587 37,000  Level Toronto Center
Tue 02:50:01 PM 46.0500 -82.7500 121° Southeast 510 587 37,000  Level Toronto Center
Tue 02:51:01 PM 45.9833 -82.6000 123° Southeast 510 587 37,000  Level Toronto Center
Tue 02:52:01 PM 45.9000 -82.4333 126° Southeast 510 587 37,000  Level Toronto Center
Tue 02:53:01 PM 45.8167 -82.2667 126° Southeast 510 587 37,000  Level Toronto Center
Tue 02:54:01 PM 45.7167 -82.1000 131° Southeast 510 587 37,000  Level Toronto Center
Tue 02:55:01 PM 45.6333 -81.9667 132° Southeast 500 575 37,000  Level Toronto Center
Tue 02:57:01 PM 45.4333 -81.7000 137° Southeast 490 564 37,000  Level Toronto Center
Tue 02:58:01 PM 45.3333 -81.5833 141° Southeast 500 575 37,000  Level Toronto Center
Tue 02:59:01 PM 45.2167 -81.4333 138° Southeast 490 564 37,000  Level Toronto Center
Tue 03:00:01 PM 45.1167 -81.3167 141° Southeast 490 564 37,000 -550 Level Toronto Center
Tue 03:01:01 PM 45.0167 -81.1833 137° Southeast 480 552 35,900 -1,650 Descending Toronto Center
Tue 03:02:01 PM 44.9333 -81.0667 135° Southeast 480 552 33,700 -2,250 Descending Toronto Center
Tue 03:03:01 PM 44.8167 -80.9333 141° Southeast 470 541 31,400 -2,300 Descending Toronto Center
Tue 03:04:01 PM 44.7333 -80.8000 131° Southeast 490 564 29,100 -2,300 Descending Toronto Center
Tue 03:05:01 PM 44.6333 -80.6833 140° Southeast 470 541 26,800 -2,200 Descending Toronto Center
Tue 03:06:01 PM 44.5500 -80.5667 135° Southeast 460 529 24,700 -2,100 Descending Toronto Center
Tue 03:07:01 PM 44.4500 -80.4500 140° Southeast 450 518 22,600 -2,100 Descending Toronto Center
Tue 03:08:01 PM 44.3667 -80.3333 135° Southeast 430 495 20,500 -1,950 Descending Toronto Center
Tue 03:09:01 PM 44.2833 -80.2667 150° Southeast 400 460 18,700 -1,850 Descending Toronto Center
Tue 03:10:01 PM 44.1833 -80.1667 144° Southeast 380 437 16,800 -1,950 Descending Toronto Center
Tue 03:11:01 PM 44.1000 -80.1000 150° Southeast 380 437 14,800 -1,900 Descending Toronto Center
Tue 03:12:01 PM 44.0167 -80.0000 139° Southeast 380 437 13,000 -1,150 Descending Toronto Center
Tue 03:13:01 PM 43.9500 -79.9333 144° Southeast 340 391 12,500 -800 Descending Toronto Center
Tue 03:14:01 PM 43.8833 -79.8667 144° Southeast 310 357 11,400 -1,300 Descending Toronto Center
Tue 03:15:01 PM 43.8167 -79.7667 133° Southeast 300 345 9,900 -1,150 Descending Toronto Center
Tue 03:16:01 PM 43.7667 -79.7000 136° Southeast 290 334 9,100 -1,350 Descending Toronto Center
Tue 03:17:01 PM 43.8000 -79.6167 61° Northeast 270 311 7,200 -1,650 Descending Toronto Center
Tue 03:18:01 PM 43.8500 -79.5333 50° Northeast 250 288 5,800 -1,500 Descending Toronto Center
Tue 03:19:01 PM 43.8167 -79.4667 125° Southeast 230 265 4,200 -1,350 Descending Toronto Center
Tue 03:20:01 PM 43.7667 -79.5000 206° Southwest 180 207 3,100 -1,100 Descending Toronto Center

Login

Don't have an account? Register now (free) for customized features, flight alerts, and more!